sensor_id;sensor_type;location;lat;lon;timestamp;pressure;altitude;pressure_sealevel;temperature;humidity
14253;BME280;7210;51.502;10.722;2024-02-26T00:01:38;98112.16;;;-0.19;100.00
14253;BME280;7210;51.502;10.722;2024-02-26T00:04:07;98125.16;;;-0.13;100.00
14253;BME280;7210;51.502;10.722;2024-02-26T00:09:24;98115.16;;;-0.22;100.00
14253;BME280;7210;51.502;10.722;2024-02-26T00:11:51;98115.53;;;-0.25;100.00
14253;BME280;7210;51.502;10.722;2024-02-26T00:14:19;98115.94;;;-0.28;100.00
14253;BME280;7210;51.502;10.722;2024-02-26T00:16:50;98108.34;;;-0.29;100.00
14253;BME280;7210;51.502;10.722;2024-02-26T00:19:19;98113.53;;;-0.29;100.00
14253;BME280;7210;51.502;10.722;2024-02-26T00:21:50;98115.75;;;-0.26;100.00
14253;BME280;7210;51.502;10.722;2024-02-26T00:24:19;98115.75;;;-0.26;100.00
14253;BME280;7210;51.502;10.722;2024-02-26T00:26:46;98108.34;;;-0.29;100.00
14253;BME280;7210;51.502;10.722;2024-02-26T00:29:18;98113.53;;;-0.29;100.00
14253;BME280;7210;51.502;10.722;2024-02-26T00:31:45;98107.56;;;-0.23;100.00
14253;BME280;7210;51.502;10.722;2024-02-26T00:34:13;98110.34;;;-0.25;100.00
14253;BME280;7210;51.502;10.722;2024-02-26T00:36:41;98111.75;;;-0.29;100.00
14253;BME280;7210;51.502;10.722;2024-02-26T00:39:08;98104.97;;;-0.30;100.00
14253;BME280;7210;51.502;10.722;2024-02-26T00:41:39;98098.34;;;-0.32;100.00
14253;BME280;7210;51.502;10.722;2024-02-26T00:44:07;98100.34;;;-0.34;100.00
14253;BME280;7210;51.502;10.722;2024-02-26T00:46:34;98091.94;;;-0.36;100.00
14253;BME280;7210;51.502;10.722;2024-02-26T00:49:01;98097.13;;;-0.36;100.00
14253;BME280;7210;51.502;10.722;2024-02-26T00:51:32;98096.34;;;-0.37;100.00
14253;BME280;7210;51.502;10.722;2024-02-26T00:54:01;98095.75;;;-0.32;100.00
14253;BME280;7210;51.502;10.722;2024-02-26T00:56:28;98102.56;;;-0.31;100.00
14253;BME280;7210;51.502;10.722;2024-02-26T00:58:55;98110.34;;;-0.31;100.00
14253;BME280;7210;51.502;10.722;2024-02-26T01:01:32;98103.56;;;-0.32;100.00
14253;BME280;7210;51.502;10.722;2024-02-26T01:04:03;98098.72;;;-0.35;100.00
14253;BME280;7210;51.502;10.722;2024-02-26T01:06:30;98099.13;;;-0.38;100.00
14253;BME280;7210;51.502;10.722;2024-02-26T01:08:57;98106.50;;;-0.35;100.00
14253;BME280;7210;51.502;10.722;2024-02-26T01:11:26;98102.31;;;-0.36;100.00
14253;BME280;7210;51.502;10.722;2024-02-26T01:13:55;98110.34;;;-0.31;100.00
14253;BME280;7210;51.502;10.722;2024-02-26T01:16:23;98103.91;;;-0.35;100.00
14253;BME280;7210;51.502;10.722;2024-02-26T01:18:50;98106.91;;;-0.38;100.00
14253;BME280;7210;51.502;10.722;2024-02-26T01:21:17;98104.72;;;-0.41;100.00
14253;BME280;7210;51.502;10.722;2024-02-26T01:23:44;98097.31;;;-0.44;100.00
14253;BME280;7210;51.502;10.722;2024-02-26T01:26:12;98100.09;;;-0.46;100.00
14253;BME280;7210;51.502;10.722;2024-02-26T01:28:40;98101.91;;;-0.46;100.00
14253;BME280;7210;51.502;10.722;2024-02-26T01:31:09;98097.69;;;-0.47;100.00
14253;BME280;7210;51.502;10.722;2024-02-26T01:33:36;98095.09;;;-0.47;100.00
14253;BME280;7210;51.502;10.722;2024-02-26T01:36:04;98099.47;;;-0.48;100.00
14253;BME280;7210;51.502;10.722;2024-02-26T01:38:32;98103.69;;;-0.47;100.00
14253;BME280;7210;51.502;10.722;2024-02-26T01:40:59;98096.09;;;-0.48;100.00
14253;BME280;7210;51.502;10.722;2024-02-26T01:43:27;98106.69;;;-0.43;100.00
14253;BME280;7210;51.502;10.722;2024-02-26T01:45:55;98101.31;;;-0.42;100.00
14253;BME280;7210;51.502;10.722;2024-02-26T01:48:23;98095.34;;;-0.42;100.00
14253;BME280;7210;51.502;10.722;2024-02-26T01:50:50;98096.72;;;-0.40;100.00
14253;BME280;7210;51.502;10.722;2024-02-26T01:53:21;98096.94;;;-0.41;100.00
14253;BME280;7210;51.502;10.722;2024-02-26T01:55:48;98073.91;;;-0.57;100.00
14253;BME280;7210;51.502;10.722;2024-02-26T01:58:16;98092.75;;;-0.42;100.00
14253;BME280;7210;51.502;10.722;2024-02-26T02:00:44;98087.91;;;-0.45;100.00
14253;BME280;7210;51.502;10.722;2024-02-26T02:03:16;98085.72;;;-0.48;100.00
14253;BME280;7210;51.502;10.722;2024-02-26T02:05:44;98083.13;;;-0.48;100.00
14253;BME280;7210;51.502;10.722;2024-02-26T02:08:11;98086.31;;;-0.46;100.00
14253;BME280;7210;51.502;10.722;2024-02-26T02:10:39;98092.13;;;-0.44;100.00
14253;BME280;7210;51.502;10.722;2024-02-26T02:13:06;98089.91;;;-0.47;100.00
14253;BME280;7210;51.502;10.722;2024-02-26T02:15:33;98078.31;;;-0.51;100.00
14253;BME280;7210;51.502;10.722;2024-02-26T02:18:01;98101.50;;;-0.43;100.00
14253;BME280;7210;51.502;10.722;2024-02-26T02:20:34;98104.66;;;-0.48;100.00
14253;BME280;7210;51.502;10.722;2024-02-26T02:23:01;98097.47;;;-0.52;100.00
14253;BME280;7210;51.502;10.722;2024-02-26T02:25:28;98094.28;;;-0.54;100.00
14253;BME280;7210;51.502;10.722;2024-02-26T02:27:56;98091.88;;;-0.56;100.00
14253;BME280;7210;51.502;10.722;2024-02-26T02:30:27;98089.69;;;-0.52;100.00
14253;BME280;7210;51.502;10.722;2024-02-26T02:32:57;98090.69;;;-0.53;100.00
14253;BME280;7210;51.502;10.722;2024-02-26T02:35:24;98103.50;;;-0.45;100.00
14253;BME280;7210;51.502;10.722;2024-02-26T02:37:53;98108.09;;;-0.41;100.00
14253;BME280;7210;51.502;10.722;2024-02-26T02:40:20;98095.53;;;-0.44;100.00
14253;BME280;7210;51.502;10.722;2024-02-26T02:42:47;98101.91;;;-0.40;100.00
14253;BME280;7210;51.502;10.722;2024-02-26T02:45:14;98100.13;;;-0.39;100.00
14253;BME280;7210;51.502;10.722;2024-02-26T02:47:41;98103.50;;;-0.39;100.00
14253;BME280;7210;51.502;10.722;2024-02-26T02:50:14;98092.75;;;-0.42;100.00
14253;BME280;7210;51.502;10.722;2024-02-26T02:52:42;98099.13;;;-0.38;100.00
14253;BME280;7210;51.502;10.722;2024-02-26T02:55:10;98105.72;;;-0.36;100.00
14253;BME280;7210;51.502;10.722;2024-02-26T02:57:37;98114.28;;;-0.35;100.00
14253;BME280;7210;51.502;10.722;2024-02-26T03:00:08;98104.53;;;-0.33;100.00
14253;BME280;7210;51.502;10.722;2024-02-26T03:02:38;98106.75;;;-0.30;100.00
14253;BME280;7210;51.502;10.722;2024-02-26T03:05:06;98106.34;;;-0.27;100.00
14253;BME280;7210;51.502;10.722;2024-02-26T03:07:33;98111.53;;;-0.27;100.00
14253;BME280;7210;51.502;10.722;2024-02-26T03:10:01;98100.34;;;-0.34;100.00
14253;BME280;7210;51.502;10.722;2024-02-26T03:12:30;98107.13;;;-0.33;100.00
14253;BME280;7210;51.502;10.722;2024-02-26T03:14:57;98108.50;;;-0.37;100.00
14253;BME280;7210;51.502;10.722;2024-02-26T03:17:26;98107.91;;;-0.39;100.00
14253;BME280;7210;51.502;10.722;2024-02-26T03:19:53;98094.72;;;-0.44;100.00
14253;BME280;7210;51.502;10.722;2024-02-26T03:22:21;98110.94;;;-0.29;100.00
14253;BME280;7210;51.502;10.722;2024-02-26T03:24:48;98111.16;;;-0.24;100.00
14253;BME280;7210;51.502;10.722;2024-02-26T03:27:15;98112.34;;;-0.20;100.00
14253;BME280;7210;51.502;10.722;2024-02-26T03:29:43;98109.97;;;-0.22;100.00
14253;BME280;7210;51.502;10.722;2024-02-26T03:32:10;98111.56;;;-0.21;100.00
14253;BME280;7210;51.502;10.722;2024-02-26T03:34:38;98106.38;;;-0.21;100.00
14253;BME280;7210;51.502;10.722;2024-02-26T03:37:06;98105.56;;;-0.21;100.00
14253;BME280;7210;51.502;10.722;2024-02-26T03:39:35;98109.75;;;-0.20;100.00
14253;BME280;7210;51.502;10.722;2024-02-26T03:42:02;98116.00;;;-0.15;100.00
14253;BME280;7210;51.502;10.722;2024-02-26T03:44:32;98118.78;;;-0.16;100.00
14253;BME280;7210;51.502;10.722;2024-02-26T03:47:01;98122.19;;;-0.09;100.00
14253;BME280;7210;51.502;10.722;2024-02-26T03:49:32;98110.38;;;-0.18;100.00
14253;BME280;7210;51.502;10.722;2024-02-26T03:52:03;98101.97;;;-0.27;100.00
14253;BME280;7210;51.502;10.722;2024-02-26T03:54:30;98094.75;;;-0.31;100.00
14253;BME280;7210;51.502;10.722;2024-02-26T03:56:57;98100.56;;;-0.29;100.00
14253;BME280;7210;51.502;10.722;2024-02-26T03:59:26;98100.78;;;-0.31;100.00
14253;BME280;7210;51.502;10.722;2024-02-26T04:01:53;98096.34;;;-0.30;100.00
14253;BME280;7210;51.502;10.722;2024-02-26T04:04:22;98113.53;;;-0.29;100.00
14253;BME280;7210;51.502;10.722;2024-02-26T04:06:49;98119.13;;;-0.32;100.00
14253;BME280;7210;51.502;10.722;2024-02-26T04:09:16;98115.94;;;-0.34;100.00
14253;BME280;7210;51.502;10.722;2024-02-26T04:11:43;98112.34;;;-0.33;100.00
14253;BME280;7210;51.502;10.722;2024-02-26T04:14:10;98111.34;;;-0.32;100.00
14253;BME280;7210;51.502;10.722;2024-02-26T04:16:38;98118.72;;;-0.29;100.00
14253;BME280;7210;51.502;10.722;2024-02-26T04:19:05;98123.31;;;-0.25;100.00
14253;BME280;7210;51.502;10.722;2024-02-26T04:21:34;98127.94;;;-0.20;100.00
14253;BME280;7210;51.502;10.722;2024-02-26T04:24:02;98124.34;;;-0.19;100.00
14253;BME280;7210;51.502;10.722;2024-02-26T04:26:30;98117.19;;;-0.17;100.00
14253;BME280;7210;51.502;10.722;2024-02-26T04:28:57;98127.56;;;-0.11;100.00
14253;BME280;7210;51.502;10.722;2024-02-26T04:31:25;98132.19;;;-0.07;100.00
14253;BME280;7210;51.502;10.722;2024-02-26T04:33:52;98120.41;;;-0.03;100.00
14253;BME280;7210;51.502;10.722;2024-02-26T04:36:19;98134.81;;;0.00;100.00
14253;BME280;7210;51.502;10.722;2024-02-26T04:38:48;98099.59;;;-0.15;100.00
14253;BME280;7210;51.502;10.722;2024-02-26T04:41:15;98135.81;;;0.18;100.00
14253;BME280;7210;51.502;10.722;2024-02-26T04:43:42;98130.03;;;0.16;100.00
14253;BME280;7210;51.502;10.722;2024-02-26T04:46:09;98129.44;;;0.21;100.00
14253;BME280;7210;51.502;10.722;2024-02-26T04:48:37;98117.44;;;0.13;100.00
14253;BME280;7210;51.502;10.722;2024-02-26T04:51:05;98134.06;;;0.32;100.00
14253;BME280;7210;51.502;10.722;2024-02-26T04:53:33;98131.25;;;0.33;100.00
14253;BME280;7210;51.502;10.722;2024-02-26T04:56:01;98126.88;;;0.34;100.00
14253;BME280;7210;51.502;10.722;2024-02-26T04:58:28;98127.06;;;0.32;100.00
14253;BME280;7210;51.502;10.722;2024-02-26T05:00:55;98131.25;;;0.33;100.00
14253;BME280;7210;51.502;10.722;2024-02-26T05:03:22;98123.69;;;0.32;100.00
14253;BME280;7210;51.502;10.722;2024-02-26T05:05:49;98116.47;;;0.27;100.00
14253;BME280;7210;51.502;10.722;2024-02-26T05:08:20;98118.03;;;0.22;100.00
14253;BME280;7210;51.502;10.722;2024-02-26T05:10:50;98128.44;;;0.22;100.00
14253;BME280;7210;51.502;10.722;2024-02-26T05:13:19;98116.84;;;0.18;100.00
14253;BME280;7210;51.502;10.722;2024-02-26T05:15:46;98119.28;;;0.19;100.00
14253;BME280;7210;51.502;10.722;2024-02-26T05:18:15;98113.66;;;0.22;100.00
14253;BME280;7210;51.502;10.722;2024-02-26T05:20:44;98123.66;;;0.25;100.00
14253;BME280;7210;51.502;10.722;2024-02-26T05:23:11;98125.25;;;0.26;100.00
14253;BME280;7210;51.502;10.722;2024-02-26T05:25:44;98127.66;;;0.28;100.00
14253;BME280;7210;51.502;10.722;2024-02-26T05:28:14;98125.47;;;0.31;100.00
14253;BME280;7210;51.502;10.722;2024-02-26T05:30:43;98128.47;;;0.41;100.00
14253;BME280;7210;51.502;10.722;2024-02-26T05:33:10;98126.09;;;0.40;100.00
14253;BME280;7210;51.502;10.722;2024-02-26T05:35:38;98127.28;;;0.44;100.00
14253;BME280;7210;51.502;10.722;2024-02-26T05:38:06;98133.09;;;0.52;100.00
14253;BME280;7210;51.502;10.722;2024-02-26T05:40:33;98132.09;;;0.53;100.00
14253;BME280;7210;51.502;10.722;2024-02-26T05:43:00;98140.09;;;0.58;100.00
14253;BME280;7210;51.502;10.722;2024-02-26T05:45:27;98131.69;;;0.56;100.00
14253;BME280;7210;51.502;10.722;2024-02-26T05:47:56;98140.50;;;0.68;100.00
14253;BME280;7210;51.502;10.722;2024-02-26T05:50:23;98145.28;;;0.71;100.00
14253;BME280;7210;51.502;10.722;2024-02-26T05:52:50;98146.88;;;0.72;100.00
14253;BME280;7210;51.502;10.722;2024-02-26T05:55:17;98150.88;;;0.75;100.00
14253;BME280;7210;51.502;10.722;2024-02-26T05:57:44;98161.28;;;0.68;100.00
14253;BME280;7210;51.502;10.722;2024-02-26T06:00:12;98161.47;;;0.67;100.00
14253;BME280;7210;51.502;10.722;2024-02-26T06:02:44;98162.06;;;0.69;100.00
14253;BME280;7210;51.502;10.722;2024-02-26T06:05:13;98162.88;;;0.76;100.00
14253;BME280;7210;51.502;10.722;2024-02-26T06:07:40;98160.28;;;0.76;100.00
14253;BME280;7210;51.502;10.722;2024-02-26T06:10:08;98168.09;;;0.82;100.00
14253;BME280;7210;51.502;10.722;2024-02-26T06:12:38;98169.28;;;0.86;100.00
14253;BME280;7210;51.502;10.722;2024-02-26T06:15:06;98184.09;;;0.92;100.00
14253;BME280;7210;51.502;10.722;2024-02-26T06:17:33;98176.72;;;0.89;100.00
14253;BME280;7210;51.502;10.722;2024-02-26T06:20:01;98190.47;;;0.96;100.00
14253;BME280;7210;51.502;10.722;2024-02-26T06:22:31;98189.28;;;0.99;100.00
14253;BME280;7210;51.502;10.722;2024-02-26T06:24:58;98190.69;;;1.01;100.00
14253;BME280;7210;51.502;10.722;2024-02-26T06:27:26;98200.91;;;1.09;100.00
14253;BME280;7210;51.502;10.722;2024-02-26T06:29:53;98203.31;;;1.11;100.00
14253;BME280;7210;51.502;10.722;2024-02-26T06:32:20;98199.28;;;1.08;100.00
14253;BME280;7210;51.502;10.722;2024-02-26T06:34:48;98194.91;;;1.09;100.00
14253;BME280;7210;51.502;10.722;2024-02-26T06:37:16;98204.09;;;1.18;100.00
14253;BME280;7210;51.502;10.722;2024-02-26T06:39:44;98197.50;;;1.15;100.00
14253;BME280;7210;51.502;10.722;2024-02-26T06:42:11;98204.69;;;1.20;100.00
14253;BME280;7210;51.502;10.722;2024-02-26T06:44:45;98200.91;;;1.22;100.00
14253;BME280;7210;51.502;10.722;2024-02-26T06:47:13;98197.28;;;1.23;100.00
14253;BME280;7210;51.502;10.722;2024-02-26T06:49:40;98212.47;;;1.39;100.00
14253;BME280;7210;51.502;10.722;2024-02-26T06:52:07;98213.28;;;1.33;100.00
14253;BME280;7210;51.502;10.722;2024-02-26T06:54:38;98228.50;;;1.30;100.00
14253;BME280;7210;51.502;10.722;2024-02-26T06:57:07;98228.31;;;1.31;100.00
14253;BME280;7210;51.502;10.722;2024-02-26T06:59:34;98229.28;;;1.43;100.00
14253;BME280;7210;51.502;10.722;2024-02-26T07:02:01;98211.06;;;1.50;100.00
14253;BME280;7210;51.502;10.722;2024-02-26T07:04:29;98212.03;;;1.68;100.00
14253;BME280;7210;51.502;10.722;2024-02-26T07:06:57;98211.56;;;1.78;100.00
14253;BME280;7210;51.502;10.722;2024-02-26T07:09:24;98203.94;;;1.89;100.00
14253;BME280;7210;51.502;10.722;2024-02-26T07:11:52;98193.13;;;1.92;100.00
14253;BME280;7210;51.502;10.722;2024-02-26T07:14:20;98208.31;;;2.02;100.00
14253;BME280;7210;51.502;10.722;2024-02-26T07:16:47;98220.75;;;1.93;100.00
14253;BME280;7210;51.502;10.722;2024-02-26T07:19:14;98222.38;;;1.81;100.00
14253;BME280;7210;51.502;10.722;2024-02-26T07:21:41;98223.59;;;1.85;100.00
14253;BME280;7210;51.502;10.722;2024-02-26T07:24:08;98221.97;;;1.91;100.00
14253;BME280;7210;51.502;10.722;2024-02-26T07:26:36;98236.34;;;2.06;100.00
14253;BME280;7210;51.502;10.722;2024-02-26T07:29:03;98242.31;;;2.20;100.00
14253;BME280;7210;51.502;10.722;2024-02-26T07:31:31;98243.09;;;2.27;100.00
14253;BME280;7210;51.502;10.722;2024-02-26T07:33:58;98244.63;;;2.41;100.00
14253;BME280;7210;51.502;10.722;2024-02-26T07:36:26;98241.34;;;2.52;100.00
14253;BME280;7210;51.502;10.722;2024-02-26T07:38:53;98246.06;;;2.68;100.00
14253;BME280;7210;51.502;10.722;2024-02-26T07:41:20;98246.88;;;2.68;100.00
14253;BME280;7210;51.502;10.722;2024-02-26T07:43:47;98253.66;;;2.76;100.00
14253;BME280;7210;51.502;10.722;2024-02-26T07:46:14;98230.22;;;2.69;100.00
14253;BME280;7210;51.502;10.722;2024-02-26T07:48:43;98241.53;;;2.88;100.00
14253;BME280;7210;51.502;10.722;2024-02-26T07:51:12;98230.69;;;2.91;100.00
14253;BME280;7210;51.502;10.722;2024-02-26T07:53:40;98236.44;;;2.99;100.00
14253;BME280;7210;51.502;10.722;2024-02-26T07:56:08;98232.97;;;3.05;100.00
14253;BME280;7210;51.502;10.722;2024-02-26T07:58:36;98238.94;;;3.12;100.00
14253;BME280;7210;51.502;10.722;2024-02-26T08:01:03;98244.16;;;3.12;100.00
14253;BME280;7210;51.502;10.722;2024-02-26T08:03:30;98242.16;;;3.14;100.00
14253;BME280;7210;51.502;10.722;2024-02-26T08:06:04;98251.09;;;3.25;100.00
14253;BME280;7210;51.502;10.722;2024-02-26T08:08:32;98249.28;;;3.25;100.00
14253;BME280;7210;51.502;10.722;2024-02-26T08:10:59;98252.06;;;3.30;100.00
14253;BME280;7210;51.502;10.722;2024-02-26T08:13:28;98260.03;;;3.35;100.00
14253;BME280;7210;51.502;10.722;2024-02-26T08:15:55;98251.63;;;3.33;100.00
14253;BME280;7210;51.502;10.722;2024-02-26T08:18:22;98268.78;;;3.47;100.00
14253;BME280;7210;51.502;10.722;2024-02-26T08:20:50;98268.22;;;3.45;100.00
14253;BME280;7210;51.502;10.722;2024-02-26T08:23:19;98269.66;;;3.41;100.00
14253;BME280;7210;51.502;10.722;2024-02-26T08:25:46;98263.78;;;3.46;100.00
14253;BME280;7210;51.502;10.722;2024-02-26T08:28:13;98270.38;;;3.48;100.00
14253;BME280;7210;51.502;10.722;2024-02-26T08:30:43;98261.38;;;3.44;100.00
14253;BME280;7210;51.502;10.722;2024-02-26T08:33:11;98265.59;;;3.45;100.00
14253;BME280;7210;51.502;10.722;2024-02-26T08:35:39;98267.78;;;3.48;100.00
14253;BME280;7210;51.502;10.722;2024-02-26T08:38:06;98268.94;;;3.52;100.00
14253;BME280;7210;51.502;10.722;2024-02-26T08:40:34;98266.31;;;3.52;100.00
14253;BME280;7210;51.502;10.722;2024-02-26T08:43:01;98283.06;;;3.69;100.00
14253;BME280;7210;51.502;10.722;2024-02-26T08:45:29;98287.00;;;3.78;100.00
14253;BME280;7210;51.502;10.722;2024-02-26T08:47:56;98275.09;;;3.82;100.00
14253;BME280;7210;51.502;10.722;2024-02-26T08:50:24;98284.69;;;3.88;100.00
14253;BME280;7210;51.502;10.722;2024-02-26T08:52:51;98289.25;;;3.92;100.00
14253;BME280;7210;51.502;10.722;2024-02-26T08:55:19;98286.31;;;4.07;100.00
14253;BME280;7210;51.502;10.722;2024-02-26T08:57:47;98298.66;;;4.18;100.00
14253;BME280;7210;51.502;10.722;2024-02-26T09:00:16;98276.41;;;4.27;100.00
14253;BME280;7210;51.502;10.722;2024-02-26T09:02:56;98281.91;;;4.37;100.00
14253;BME280;7210;51.502;10.722;2024-02-26T09:05:27;98272.63;;;4.41;100.00
14253;BME280;7210;51.502;10.722;2024-02-26T09:07:54;98277.72;;;4.54;100.00
14253;BME280;7210;51.502;10.722;2024-02-26T09:10:21;98280.59;;;4.64;100.00
14253;BME280;7210;51.502;10.722;2024-02-26T09:12:50;98280.63;;;4.75;100.00
14253;BME280;7210;51.502;10.722;2024-02-26T09:15:17;98282.59;;;4.80;100.00
14253;BME280;7210;51.502;10.722;2024-02-26T09:17:44;98289.69;;;4.91;100.00
14253;BME280;7210;51.502;10.722;2024-02-26T09:20:15;98278.69;;;5.00;100.00
14253;BME280;7210;51.502;10.722;2024-02-26T09:22:51;98287.56;;;4.99;100.00
14253;BME280;7210;51.502;10.722;2024-02-26T09:25:20;98280.63;;;5.05;100.00
14253;BME280;7210;51.502;10.722;2024-02-26T09:27:52;98274.50;;;5.11;100.00
14253;BME280;7210;51.502;10.722;2024-02-26T09:30:19;98274.72;;;5.21;100.00
14253;BME280;7210;51.502;10.722;2024-02-26T09:32:49;98259.13;;;5.14;100.00
14253;BME280;7210;51.502;10.722;2024-02-26T09:35:17;98281.94;;;5.37;100.00
14253;BME280;7210;51.502;10.722;2024-02-26T09:37:44;98286.06;;;5.44;100.00
14253;BME280;7210;51.502;10.722;2024-02-26T09:40:15;98288.34;;;5.52;100.00
14253;BME280;7210;51.502;10.722;2024-02-26T09:42:44;98290.50;;;5.55;100.00
14253;BME280;7210;51.502;10.722;2024-02-26T09:45:18;98291.88;;;5.58;100.00
14253;BME280;7210;51.502;10.722;2024-02-26T09:47:48;98277.75;;;5.59;100.00
14253;BME280;7210;51.502;10.722;2024-02-26T09:50:17;98305.34;;;5.73;100.00
14253;BME280;7210;51.502;10.722;2024-02-26T09:52:48;98310.84;;;5.83;100.00
14253;BME280;7210;51.502;10.722;2024-02-26T09:55:16;98308.69;;;5.91;100.00
14253;BME280;7210;51.502;10.722;2024-02-26T09:57:46;98314.03;;;6.08;100.00
14253;BME280;7210;51.502;10.722;2024-02-26T10:00:18;98306.28;;;6.13;100.00
14253;BME280;7210;51.502;10.722;2024-02-26T10:02:46;98303.16;;;6.27;100.00
14253;BME280;7210;51.502;10.722;2024-02-26T10:05:17;98321.84;;;6.42;100.00
14253;BME280;7210;51.502;10.722;2024-02-26T10:07:45;98311.59;;;6.52;100.00
14253;BME280;7210;51.502;10.722;2024-02-26T10:10:13;98314.63;;;6.61;100.00
14253;BME280;7210;51.502;10.722;2024-02-26T10:12:41;98320.09;;;6.71;100.00
14253;BME280;7210;51.502;10.722;2024-02-26T10:15:09;98312.28;;;6.76;100.00
14253;BME280;7210;51.502;10.722;2024-02-26T10:17:41;98312.28;;;6.76;100.00
14253;BME280;7210;51.502;10.722;2024-02-26T10:20:13;98329.13;;;7.03;100.00
14253;BME280;7210;51.502;10.722;2024-02-26T10:22:42;98332.47;;;7.15;100.00
14253;BME280;7210;51.502;10.722;2024-02-26T10:25:09;98341.56;;;7.23;100.00
14253;BME280;7210;51.502;10.722;2024-02-26T10:27:36;98329.13;;;7.19;100.00
14253;BME280;7210;51.502;10.722;2024-02-26T10:30:05;98334.50;;;7.24;100.00
14253;BME280;7210;51.502;10.722;2024-02-26T10:32:44;98336.09;;;7.25;100.00
14253;BME280;7210;51.502;10.722;2024-02-26T10:35:12;98343.03;;;7.31;100.00
14253;BME280;7210;51.502;10.722;2024-02-26T10:37:40;98359.13;;;7.34;100.00
14253;BME280;7210;51.502;10.722;2024-02-26T10:40:11;98365.50;;;7.38;100.00
14253;BME280;7210;51.502;10.722;2024-02-26T10:42:38;98375.06;;;7.44;100.00
14253;BME280;7210;51.502;10.722;2024-02-26T10:45:06;98392.16;;;7.58;100.00
14253;BME280;7210;51.502;10.722;2024-02-26T10:47:40;98408.09;;;7.68;100.00
14253;BME280;7210;51.502;10.722;2024-02-26T10:50:16;98404.63;;;7.79;100.00
14253;BME280;7210;51.502;10.722;2024-02-26T10:52:44;98420.09;;;7.92;100.00
14253;BME280;7210;51.502;10.722;2024-02-26T10:55:16;98422.81;;;7.97;100.00
14253;BME280;7210;51.502;10.722;2024-02-26T10:57:46;98413.31;;;7.96;99.97
14253;BME280;7210;51.502;10.722;2024-02-26T11:00:16;98419.94;;;7.99;99.71
14253;BME280;7210;51.502;10.722;2024-02-26T11:02:45;98428.16;;;8.02;99.45
14253;BME280;7210;51.502;10.722;2024-02-26T11:05:13;98427.91;;;8.04;98.83
14253;BME280;7210;51.502;10.722;2024-02-26T11:07:44;98433.09;;;8.15;98.43
14253;BME280;7210;51.502;10.722;2024-02-26T11:10:13;98433.09;;;8.15;98.00
14253;BME280;7210;51.502;10.722;2024-02-26T11:12:42;98450.09;;;8.24;97.83
14253;BME280;7210;51.502;10.722;2024-02-26T11:15:10;98461.91;;;8.38;97.28
14253;BME280;7210;51.502;10.722;2024-02-26T11:17:38;98481.72;;;8.57;96.95
14253;BME280;7210;51.502;10.722;2024-02-26T11:20:10;98466.38;;;8.54;96.28
14253;BME280;7210;51.502;10.722;2024-02-26T11:22:39;98469.59;;;8.56;96.07
14253;BME280;7210;51.502;10.722;2024-02-26T11:25:08;98447.88;;;8.49;95.32
14253;BME280;7210;51.502;10.722;2024-02-26T11:27:41;98469.22;;;8.69;95.05
14253;BME280;7210;51.502;10.722;2024-02-26T11:30:13;98466.06;;;8.67;94.82
14253;BME280;7210;51.502;10.722;2024-02-26T11:32:44;98456.97;;;8.58;94.42
14253;BME280;7210;51.502;10.722;2024-02-26T11:35:12;98455.13;;;8.59;94.12
14253;BME280;7210;51.502;10.722;2024-02-26T11:37:41;98468.91;;;8.66;93.81
14253;BME280;7210;51.502;10.722;2024-02-26T11:40:19;98487.22;;;8.72;93.58
14253;BME280;7210;51.502;10.722;2024-02-26T11:42:48;98490.41;;;8.74;93.43
14253;BME280;7210;51.502;10.722;2024-02-26T11:45:49;98448.75;;;8.55;92.92
14253;BME280;7210;51.502;10.722;2024-02-26T11:48:21;98504.84;;;8.88;93.10
14253;BME280;7210;51.502;10.722;2024-02-26T11:50:52;98522.38;;;8.99;92.78
14253;BME280;7210;51.502;10.722;2024-02-26T11:53:21;98536.81;;;9.13;92.83
14253;BME280;7210;51.502;10.722;2024-02-26T11:56:28;98528.88;;;9.30;92.11
14253;BME280;7210;51.502;10.722;2024-02-26T11:59:08;98504.44;;;9.18;91.56
14253;BME280;7210;51.502;10.722;2024-02-26T12:01:41;98524.38;;;9.30;91.18
14253;BME280;7210;51.502;10.722;2024-02-26T12:04:13;98523.59;;;9.30;90.83
14253;BME280;7210;51.502;10.722;2024-02-26T12:06:45;98531.31;;;9.36;90.40
14253;BME280;7210;51.502;10.722;2024-02-26T12:09:12;98522.13;;;9.39;90.06
14253;BME280;7210;51.502;10.722;2024-02-26T12:11:42;98528.69;;;9.36;89.85
14253;BME280;7210;51.502;10.722;2024-02-26T12:14:18;98555.25;;;9.51;89.73
14253;BME280;7210;51.502;10.722;2024-02-26T12:16:45;98552.59;;;9.51;89.29
14253;BME280;7210;51.502;10.722;2024-02-26T12:19:13;98566.16;;;9.60;89.20
14253;BME280;7210;51.502;10.722;2024-02-26T12:21:41;98550.00;;;9.56;88.96
14253;BME280;7210;51.502;10.722;2024-02-26T12:24:13;98555.91;;;9.63;88.76
14253;BME280;7210;51.502;10.722;2024-02-26T12:26:46;98528.31;;;9.49;88.27
14253;BME280;7210;51.502;10.722;2024-02-26T12:29:14;98548.41;;;9.55;88.36
14253;BME280;7210;51.502;10.722;2024-02-26T12:31:41;98569.06;;;9.58;88.15
14253;BME280;7210;51.502;10.722;2024-02-26T12:34:09;98578.06;;;9.62;87.88
14253;BME280;7210;51.502;10.722;2024-02-26T12:36:45;98562.66;;;9.54;87.76
14253;BME280;7210;51.502;10.722;2024-02-26T12:39:12;98565.31;;;9.54;87.62
14253;BME280;7210;51.502;10.722;2024-02-26T12:41:46;98586.47;;;9.59;87.60
14253;BME280;7210;51.502;10.722;2024-02-26T12:44:15;98588.06;;;9.60;87.27
14253;BME280;7210;51.502;10.722;2024-02-26T12:46:42;98574.75;;;9.50;87.13
14253;BME280;7210;51.502;10.722;2024-02-26T12:49:15;98589.03;;;9.54;87.09
14253;BME280;7210;51.502;10.722;2024-02-26T12:51:44;98581.88;;;9.50;86.93
14253;BME280;7210;51.502;10.722;2024-02-26T12:54:12;98577.41;;;9.50;86.80
14253;BME280;7210;51.502;10.722;2024-02-26T12:56:40;98566.38;;;9.37;86.74
14253;BME280;7210;51.502;10.722;2024-02-26T12:59:09;98566.25;;;9.27;86.79
14253;BME280;7210;51.502;10.722;2024-02-26T13:01:36;98564.03;;;9.19;86.68
14253;BME280;7210;51.502;10.722;2024-02-26T13:04:04;98594.16;;;9.23;86.93
14253;BME280;7210;51.502;10.722;2024-02-26T13:06:33;98599.19;;;9.24;87.03
14253;BME280;7210;51.502;10.722;2024-02-26T13:09:00;98619.81;;;9.27;87.21